Time;durP1;ratioP1;P1;durP2;ratioP2;P2;SDS_P1;SDS_P2;PMS_P1;PMS_P2;Temp;Humidity;BMP_temperature;BMP_pressure;BME280_temperature;BME280_humidity;BME280_pressure;Samples;Min_cycle;Max_cycle;Signal;HPM_P1;HPM_P2
2022/01/17 00:01:43;;;;;;;;;;;7.00;99.90;;;;;;5078515;28;20439;-60
2022/01/17 00:04:10;;;;;;;;;;;7.00;99.90;;;;;;5094647;28;19916;-60
2022/01/17 00:06:36;;;;;;;;;;;6.90;99.90;;;;;;5094948;28;20001;-60
2022/01/17 00:09:02;;;;;;;;;;;6.90;99.90;;;;;;5094511;28;19912;-60
2022/01/17 00:11:27;;;;;;;;;;;6.90;99.90;;;;;;5093075;28;20374;-60
2022/01/17 00:13:53;;;;;;;;;;;6.90;99.90;;;;;;5094951;28;19912;-60
2022/01/17 00:16:28;;;;;;;;;;;6.80;99.90;;;;;;5094271;28;19908;-60
2022/01/17 00:19:18;;;;;;;;;;;6.80;99.90;;;;;;5094330;28;20346;-60
2022/01/17 00:21:43;;;;;;;;;;;6.80;99.90;;;;;;5090656;28;19909;-60
2022/01/17 00:24:09;;;;;;;;;;;6.80;99.90;;;;;;5073902;28;19939;-60
2022/01/17 00:26:34;;;;;;;;;;;6.80;99.90;;;;;;5074358;28;19908;-60
2022/01/17 00:29:00;;;;;;;;;;;6.70;99.90;;;;;;5074283;28;19908;-60
2022/01/17 00:31:25;;;;;;;;;;;6.70;99.90;;;;;;5091433;28;19916;-61
2022/01/17 00:33:51;;;;;;;;;;;6.70;99.90;;;;;;5094536;28;20289;-60
2022/01/17 00:36:16;;;;;;;;;;;6.70;99.90;;;;;;5094468;28;19962;-60
2022/01/17 00:38:42;;;;;;;;;;;6.70;99.90;;;;;;5084884;28;19908;-60
2022/01/17 00:41:07;;;;;;;;;;;6.70;99.90;;;;;;5074046;28;19966;-60
2022/01/17 00:43:34;;;;;;;;;;;6.70;99.90;;;;;;5073848;28;19912;-60
2022/01/17 00:46:00;;;;;;;;;;;6.70;99.90;;;;;;5073822;28;19919;-60
2022/01/17 00:48:25;;;;;;;;;;;6.70;99.90;;;;;;5078709;28;19908;-60
2022/01/17 00:50:51;;;;;;;;;;;6.70;99.90;;;;;;5093559;28;19920;-60
2022/01/17 00:53:16;;;;;;;;;;;6.70;99.90;;;;;;5094261;28;19955;-60
2022/01/17 00:55:42;;;;;;;;;;;6.70;99.90;;;;;;5094060;28;19908;-60
2022/01/17 00:58:08;;;;;;;;;;;6.70;99.90;;;;;;5082161;28;19908;-60
2022/01/17 01:00:33;;;;;;;;;;;6.70;99.90;;;;;;5073696;28;20014;-61
2022/01/17 01:02:59;;;;;;;;;;;6.70;99.90;;;;;;5073801;28;19908;-60
2022/01/17 01:05:25;;;;;;;;;;;6.70;99.90;;;;;;5072816;28;20330;-60
2022/01/17 01:07:51;;;;;;;;;;;6.70;99.90;;;;;;5074749;28;19920;-60
2022/01/17 01:10:16;;;;;;;;;;;6.70;99.90;;;;;;5073444;28;20386;-60
2022/01/17 01:12:46;;;;;;;;;;;6.70;99.90;;;;;;5073092;28;20343;-60
2022/01/17 01:15:19;;;;;;;;;;;6.70;99.90;;;;;;5073598;28;19908;-60
2022/01/17 01:17:54;;;;;;;;;;;6.70;99.90;;;;;;5080762;28;19912;-60
2022/01/17 01:28:38;;;;;;;;;;;6.70;99.90;;;;;;5079219;28;19919;-60
2022/01/17 01:31:08;;;;;;;;;;;6.60;99.90;;;;;;5072441;28;19921;-60
2022/01/17 01:33:38;;;;;;;;;;;6.60;99.90;;;;;;5072700;28;19958;-60
2022/01/17 01:36:09;;;;;;;;;;;6.60;99.90;;;;;;5073311;28;20003;-60
2022/01/17 01:38:36;;;;;;;;;;;6.60;99.90;;;;;;5087035;28;20263;-60
2022/01/17 01:41:02;;;;;;;;;;;6.60;99.90;;;;;;5093107;28;19942;-60
2022/01/17 01:43:27;;;;;;;;;;;6.60;99.90;;;;;;5093387;28;19908;-60
2022/01/17 01:46:00;;;;;;;;;;;6.60;99.90;;;;;;5093498;28;19908;-61
2022/01/17 01:48:26;;;;;;;;;;;6.60;99.90;;;;;;5081329;28;20003;-60
2022/01/17 01:50:51;;;;;;;;;;;6.60;99.90;;;;;;5073439;28;20011;-61
2022/01/17 01:53:16;;;;;;;;;;;6.60;99.90;;;;;;5073105;28;19915;-60
2022/01/17 01:55:42;;;;;;;;;;;6.60;99.90;;;;;;5072573;28;19916;-60
2022/01/17 01:58:09;;;;;;;;;;;6.60;99.90;;;;;;5081732;28;20258;-61
2022/01/17 02:00:34;;;;;;;;;;;6.60;99.90;;;;;;5093108;28;19912;-60
2022/01/17 02:03:00;;;;;;;;;;;6.60;99.90;;;;;;5092730;28;20007;-60
2022/01/17 02:05:25;;;;;;;;;;;6.60;99.90;;;;;;5092803;28;19989;-60
2022/01/17 02:07:51;;;;;;;;;;;6.60;99.90;;;;;;5086788;28;20382;-61
2022/01/17 02:10:16;;;;;;;;;;;6.50;99.90;;;;;;5072313;28;19985;-60
2022/01/17 02:12:42;;;;;;;;;;;6.50;99.90;;;;;;5072964;28;19916;-60
2022/01/17 02:15:11;;;;;;;;;;;6.50;99.90;;;;;;5072463;28;19908;-60
2022/01/17 02:17:44;;;;;;;;;;;6.40;99.90;;;;;;5073941;28;19919;-60
2022/01/17 02:20:13;;;;;;;;;;;6.40;99.90;;;;;;5072967;28;20287;-60
2022/01/17 02:22:39;;;;;;;;;;;6.30;99.90;;;;;;5072278;28;20287;-61
2022/01/17 02:25:05;;;;;;;;;;;6.30;99.90;;;;;;5072701;28;19915;-61
2022/01/17 02:27:30;;;;;;;;;;;6.30;99.90;;;;;;5075251;28;19912;-60
2022/01/17 02:29:56;;;;;;;;;;;6.20;99.90;;;;;;5092603;28;19912;-60
2022/01/17 02:32:21;;;;;;;;;;;6.20;99.90;;;;;;5093109;28;19935;-60
2022/01/17 02:34:47;;;;;;;;;;;6.20;99.90;;;;;;5093036;28;20347;-60
2022/01/17 02:37:13;;;;;;;;;;;6.10;99.90;;;;;;5078152;28;19912;-60
2022/01/17 02:39:39;;;;;;;;;;;6.10;99.90;;;;;;5072526;28;19916;-60
2022/01/17 02:42:05;;;;;;;;;;;6.10;99.90;;;;;;5073985;28;19915;-61
2022/01/17 02:44:31;;;;;;;;;;;6.10;99.90;;;;;;5075694;28;19919;-60
2022/01/17 02:46:56;;;;;;;;;;;6.10;99.90;;;;;;5086887;28;19912;-60
2022/01/17 02:49:22;;;;;;;;;;;6.10;99.90;;;;;;5096491;28;19908;-60
2022/01/17 02:51:48;;;;;;;;;;;6.10;99.90;;;;;;5095904;28;19916;-60
2022/01/17 02:54:14;;;;;;;;;;;6.10;99.90;;;;;;5096441;28;19919;-60
2022/01/17 02:56:40;;;;;;;;;;;6.10;99.90;;;;;;5087639;28;20353;-60
2022/01/17 02:59:06;;;;;;;;;;;6.10;99.90;;;;;;5075537;28;19913;-60
2022/01/17 03:01:31;;;;;;;;;;;6.00;99.90;;;;;;5075866;28;19916;-60
2022/01/17 03:03:57;;;;;;;;;;;6.10;99.90;;;;;;5076031;28;19948;-61
2022/01/17 03:06:23;;;;;;;;;;;6.00;99.90;;;;;;5076026;28;19935;-61
2022/01/17 03:08:50;;;;;;;;;;;6.10;99.90;;;;;;5076030;28;20005;-59
2022/01/17 03:11:17;;;;;;;;;;;6.00;99.90;;;;;;5075937;28;19920;-60
2022/01/17 03:13:43;;;;;;;;;;;6.00;99.90;;;;;;5075832;28;19919;-60
2022/01/17 03:16:11;;;;;;;;;;;6.00;99.90;;;;;;5091568;28;19912;-60
2022/01/17 03:18:39;;;;;;;;;;;6.00;99.90;;;;;;5095587;28;19908;-60
2022/01/17 03:21:05;;;;;;;;;;;6.00;99.90;;;;;;5095912;28;19915;-60
2022/01/17 03:23:31;;;;;;;;;;;6.00;99.90;;;;;;5095818;28;20002;-61
2022/01/17 03:25:56;;;;;;;;;;;5.90;99.90;;;;;;5078592;28;19999;-60
2022/01/17 03:28:22;;;;;;;;;;;5.90;99.90;;;;;;5075676;28;19916;-60
2022/01/17 03:30:48;;;;;;;;;;;5.90;99.90;;;;;;5075387;28;20363;-60
2022/01/17 03:33:14;;;;;;;;;;;6.00;99.90;;;;;;5074980;28;19962;-60
2022/01/17 03:35:40;;;;;;;;;;;6.00;99.90;;;;;;5089335;28;20366;-60
2022/01/17 03:38:07;;;;;;;;;;;6.00;99.90;;;;;;5095585;28;19998;-60
2022/01/17 03:40:32;;;;;;;;;;;6.00;99.90;;;;;;5094450;28;19934;-60
2022/01/17 03:42:58;;;;;;;;;;;6.00;99.90;;;;;;5095465;28;20367;-60
2022/01/17 03:45:23;;;;;;;;;;;6.10;99.90;;;;;;5083448;28;19973;-60
2022/01/17 03:47:49;;;;;;;;;;;6.10;99.90;;;;;;5074763;28;20301;-60
2022/01/17 03:50:16;;;;;;;;;;;6.10;99.90;;;;;;5075156;28;19913;-60
2022/01/17 03:52:41;;;;;;;;;;;6.10;99.90;;;;;;5075030;28;20673;-60
2022/01/17 03:55:11;;;;;;;;;;;6.10;99.90;;;;;;5082271;28;19919;-60
2022/01/17 03:57:37;;;;;;;;;;;6.20;99.90;;;;;;5095201;28;20416;-61
2022/01/17 04:00:07;;;;;;;;;;;6.20;99.90;;;;;;5095075;28;19998;-60
2022/01/17 04:02:32;;;;;;;;;;;6.30;99.90;;;;;;5094558;28;19991;-60
2022/01/17 04:04:58;;;;;;;;;;;6.30;99.90;;;;;;5086960;28;20024;-60
2022/01/17 04:07:23;;;;;;;;;;;6.30;99.90;;;;;;5075668;28;19912;-61
2022/01/17 04:09:49;;;;;;;;;;;6.30;99.90;;;;;;5074212;28;19913;-60
2022/01/17 04:12:14;;;;;;;;;;;6.30;99.90;;;;;;5074655;28;20332;-61
2022/01/17 04:14:39;;;;;;;;;;;6.30;99.90;;;;;;5081002;28;20339;-61
2022/01/17 04:17:06;;;;;;;;;;;6.30;99.90;;;;;;5094451;28;19912;-60
2022/01/17 04:19:32;;;;;;;;;;;6.30;99.90;;;;;;5094982;28;19962;-61
2022/01/17 04:21:58;;;;;;;;;;;6.30;99.90;;;;;;5094410;28;20362;-61
2022/01/17 04:24:23;;;;;;;;;;;6.30;99.90;;;;;;5089813;28;19913;-60
2022/01/17 04:26:49;;;;;;;;;;;6.30;99.90;;;;;;5074415;28;19919;-60
2022/01/17 04:29:14;;;;;;;;;;;6.30;99.90;;;;;;5073692;28;19934;-60
2022/01/17 04:31:40;;;;;;;;;;;6.30;99.90;;;;;;5074190;28;20007;-62
2022/01/17 04:34:05;;;;;;;;;;;6.20;99.90;;;;;;5078194;28;19946;-60
2022/01/17 04:36:31;;;;;;;;;;;6.20;99.90;;;;;;5093795;28;20003;-60
2022/01/17 04:38:57;;;;;;;;;;;6.20;99.90;;;;;;5094295;28;19953;-60
2022/01/17 04:41:28;;;;;;;;;;;6.20;99.90;;;;;;5094234;28;19968;-61
2022/01/17 04:46:19;;;;;;;;;;;6.20;99.90;;;;;;5073986;28;19912;-60
2022/01/17 04:48:45;;;;;;;;;;;6.20;99.90;;;;;;5074047;28;19912;-60
2022/01/17 04:51:10;;;;;;;;;;;6.10;99.90;;;;;;5073413;28;20287;-60
2022/01/17 04:53:36;;;;;;;;;;;6.10;99.90;;;;;;5073689;28;19908;-61
2022/01/17 04:56:02;;;;;;;;;;;6.10;99.90;;;;;;5093155;28;19916;-60
2022/01/17 04:58:27;;;;;;;;;;;6.20;99.90;;;;;;5093539;28;19915;-61
2022/01/17 05:00:53;;;;;;;;;;;6.20;99.90;;;;;;5094058;28;19931;-60
2022/01/17 05:03:19;;;;;;;;;;;6.20;99.90;;;;;;5093799;28;19908;-60
2022/01/17 05:05:45;;;;;;;;;;;6.30;99.90;;;;;;5075727;28;19927;-60
2022/01/17 05:08:11;;;;;;;;;;;6.30;99.90;;;;;;5073636;28;19913;-60
2022/01/17 05:10:36;;;;;;;;;;;6.40;99.90;;;;;;5073405;28;19920;-60
2022/01/17 05:13:02;;;;;;;;;;;6.40;99.90;;;;;;5073407;28;20003;-60
2022/01/17 05:15:35;;;;;;;;;;;6.40;99.90;;;;;;5073602;28;19916;-60
2022/01/17 05:20:35;;;;;;;;;;;6.50;99.90;;;;;;5073433;28;19908;-60
2022/01/17 05:23:00;;;;;;;;;;;6.50;99.90;;;;;;5073287;28;20362;-61
2022/01/17 05:25:26;;;;;;;;;;;6.50;99.90;;;;;;5083865;28;20013;-61
2022/01/17 05:27:51;;;;;;;;;;;6.60;99.90;;;;;;5093625;28;20347;-60
2022/01/17 05:30:18;;;;;;;;;;;6.50;99.90;;;;;;5093143;28;19960;-61
2022/01/17 05:32:43;;;;;;;;;;;6.50;99.90;;;;;;5092991;28;19909;-61
2022/01/17 05:35:09;;;;;;;;;;;6.50;99.90;;;;;;5084624;28;19918;-60
2022/01/17 05:37:36;;;;;;;;;;;6.60;99.90;;;;;;5073426;28;19912;-61
2022/01/17 05:40:03;;;;;;;;;;;6.60;99.90;;;;;;5073136;28;19993;-61
2022/01/17 05:42:30;;;;;;;;;;;6.60;99.90;;;;;;5073214;28;19908;-61
2022/01/17 05:44:55;;;;;;;;;;;6.70;99.90;;;;;;5079826;28;19912;-60
2022/01/17 05:47:21;;;;;;;;;;;6.70;99.90;;;;;;5092534;28;19919;-60
2022/01/17 05:49:46;;;;;;;;;;;6.70;99.90;;;;;;5093163;28;20343;-60
2022/01/17 05:52:12;;;;;;;;;;;6.80;99.90;;;;;;5093531;28;19998;-61
2022/01/17 05:54:37;;;;;;;;;;;6.80;99.90;;;;;;5088324;28;19913;-61
2022/01/17 05:57:03;;;;;;;;;;;6.80;99.90;;;;;;5073374;28;19908;-61
2022/01/17 05:59:28;;;;;;;;;;;6.80;99.90;;;;;;5072985;28;19955;-61
2022/01/17 06:01:54;;;;;;;;;;;6.80;99.90;;;;;;5072637;28;19978;-61
2022/01/17 06:04:20;;;;;;;;;;;6.80;99.90;;;;;;5073600;28;20003;-60
2022/01/17 06:06:46;;;;;;;;;;;6.90;99.90;;;;;;5093205;28;19912;-60
2022/01/17 06:09:11;;;;;;;;;;;6.90;99.90;;;;;;5092803;28;19953;-60
2022/01/17 06:11:37;;;;;;;;;;;6.90;99.90;;;;;;5093048;28;20472;-60
2022/01/17 06:14:04;;;;;;;;;;;6.90;99.90;;;;;;5093215;28;20348;-62
2022/01/17 06:16:30;;;;;;;;;;;7.00;99.90;;;;;;5073278;28;19908;-60
2022/01/17 06:18:56;;;;;;;;;;;7.00;99.90;;;;;;5077165;28;19913;-60
2022/01/17 06:21:21;;;;;;;;;;;7.00;99.90;;;;;;5076267;28;19995;-60
2022/01/17 06:23:47;;;;;;;;;;;7.00;99.90;;;;;;5058832;28;19913;-60
2022/01/17 06:26:12;;;;;;;;;;;7.00;99.90;;;;;;5095012;28;19909;-60
2022/01/17 06:28:38;;;;;;;;;;;7.10;99.90;;;;;;5096448;28;19912;-60
2022/01/17 06:31:03;;;;;;;;;;;7.10;99.90;;;;;;5078543;28;20336;-60
2022/01/17 06:33:29;;;;;;;;;;;7.10;99.90;;;;;;5076385;28;19966;-60
2022/01/17 06:35:54;;;;;;;;;;;7.10;99.90;;;;;;5092086;28;20266;-60
2022/01/17 06:38:20;;;;;;;;;;;7.10;99.90;;;;;;5096621;28;19973;-60
2022/01/17 06:40:45;;;;;;;;;;;7.10;99.90;;;;;;5096686;28;19940;-60
2022/01/17 06:43:11;;;;;;;;;;;7.10;99.90;;;;;;5096262;28;19908;-60
2022/01/17 06:45:37;;;;;;;;;;;7.10;99.90;;;;;;5079869;28;19908;-60
2022/01/17 06:48:05;;;;;;;;;;;7.10;99.90;;;;;;5076400;28;19920;-60
2022/01/17 06:50:31;;;;;;;;;;;7.10;99.90;;;;;;5075474;28;19989;-61
2022/01/17 06:52:57;;;;;;;;;;;7.10;99.90;;;;;;5076352;28;20333;-61
2022/01/17 06:55:22;;;;;;;;;;;7.10;99.90;;;;;;5089972;28;19908;-60
2022/01/17 06:57:48;;;;;;;;;;;7.10;99.90;;;;;;5095940;28;19912;-60
2022/01/17 07:00:13;;;;;;;;;;;7.10;99.90;;;;;;5095876;28;19915;-61
2022/01/17 07:02:39;;;;;;;;;;;7.10;99.90;;;;;;5096083;28;19919;-61
2022/01/17 07:05:04;;;;;;;;;;;7.10;99.90;;;;;;5093789;28;19946;-61
2022/01/17 07:07:30;;;;;;;;;;;7.10;99.90;;;;;;5096168;28;20278;-60
2022/01/17 07:09:55;;;;;;;;;;;7.00;99.90;;;;;;5096226;28;19908;-60
2022/01/17 07:12:21;;;;;;;;;;;7.10;99.90;;;;;;5095544;28;19916;-60
2022/01/17 07:14:46;;;;;;;;;;;7.00;99.90;;;;;;5087345;28;19916;-60
2022/01/17 07:17:12;;;;;;;;;;;7.00;99.90;;;;;;5075761;28;19909;-60
2022/01/17 07:19:38;;;;;;;;;;;7.00;99.90;;;;;;5075381;28;19932;-60
2022/01/17 07:22:04;;;;;;;;;;;7.00;99.90;;;;;;5075722;28;19908;-60
2022/01/17 07:24:29;;;;;;;;;;;7.00;99.90;;;;;;5080251;28;19912;-60
2022/01/17 07:26:55;;;;;;;;;;;7.00;99.90;;;;;;5095701;28;19915;-60
2022/01/17 07:29:21;;;;;;;;;;;7.00;99.90;;;;;;5094541;28;19956;-60
2022/01/17 07:31:46;;;;;;;;;;;7.10;99.90;;;;;;5095126;28;20291;-60
2022/01/17 07:34:12;;;;;;;;;;;7.10;99.90;;;;;;5092700;28;20374;-60
2022/01/17 07:36:37;;;;;;;;;;;7.10;99.90;;;;;;5075507;28;19935;-60
2022/01/17 07:39:03;;;;;;;;;;;7.10;99.90;;;;;;5081522;28;19916;-60
2022/01/17 07:41:28;;;;;;;;;;;7.10;99.90;;;;;;5094367;28;19923;-60
2022/01/17 07:43:54;;;;;;;;;;;7.10;99.90;;;;;;5094924;28;19915;-60
2022/01/17 07:46:25;;;;;;;;;;;7.10;99.90;;;;;;5089043;28;19912;-60
2022/01/17 07:51:23;;;;;;;;;;;7.10;99.90;;;;;;5075179;28;19916;-60
2022/01/17 07:53:49;;;;;;;;;;;7.10;99.90;;;;;;5074568;28;19944;-60
2022/01/17 07:56:15;;;;;;;;;;;7.20;99.90;;;;;;5075098;28;19959;-60
2022/01/17 07:58:41;;;;;;;;;;;7.20;99.90;;;;;;5074673;28;19916;-60
2022/01/17 08:01:07;;;;;;;;;;;7.20;99.90;;;;;;5081667;28;19912;-60
2022/01/17 08:03:33;;;;;;;;;;;7.20;99.90;;;;;;5087154;28;19938;-60
2022/01/17 08:05:59;;;;;;;;;;;7.20;99.90;;;;;;5112306;28;19947;-60
2022/01/17 08:08:25;;;;;;;;;;;7.30;99.90;;;;;;5110801;28;19930;-60
2022/01/17 08:10:50;;;;;;;;;;;7.30;99.90;;;;;;5094879;28;20057;-60
2022/01/17 08:13:16;;;;;;;;;;;7.30;99.90;;;;;;5079537;28;19920;-61
2022/01/17 08:15:43;;;;;;;;;;;7.30;99.90;;;;;;5073669;28;19962;-60
2022/01/17 08:18:09;;;;;;;;;;;7.30;99.90;;;;;;5074214;28;19999;-60
2022/01/17 08:20:35;;;;;;;;;;;7.30;99.90;;;;;;5085249;28;20402;-61
2022/01/17 08:23:01;;;;;;;;;;;7.40;99.90;;;;;;5093616;28;20007;-61
2022/01/17 08:25:27;;;;;;;;;;;7.30;99.90;;;;;;5093926;28;19908;-60
2022/01/17 08:27:52;;;;;;;;;;;7.30;99.90;;;;;;5093640;28;20263;-61
2022/01/17 08:30:17;;;;;;;;;;;7.40;99.90;;;;;;5082334;28;19916;-60
2022/01/17 08:32:43;;;;;;;;;;;7.40;99.90;;;;;;5073647;28;19966;-60
2022/01/17 08:35:08;;;;;;;;;;;7.40;99.90;;;;;;5073202;28;19919;-60
2022/01/17 08:37:34;;;;;;;;;;;7.40;99.90;;;;;;5073120;28;19959;-61
2022/01/17 08:40:00;;;;;;;;;;;7.40;99.90;;;;;;5081442;28;20007;-60
2022/01/17 08:42:26;;;;;;;;;;;7.40;99.90;;;;;;5083195;28;19912;-62
2022/01/17 08:44:51;;;;;;;;;;;7.40;99.90;;;;;;5113988;28;19912;-61
2022/01/17 08:47:18;;;;;;;;;;;7.40;99.90;;;;;;5103791;28;19915;-61
2022/01/17 08:49:44;;;;;;;;;;;7.40;99.90;;;;;;5092970;28;19908;-62
2022/01/17 08:52:09;;;;;;;;;;;7.40;99.90;;;;;;5092636;28;20015;-62
2022/01/17 08:54:35;;;;;;;;;;;7.40;99.90;;;;;;5091413;28;20003;-63
2022/01/17 08:57:00;;;;;;;;;;;7.40;99.90;;;;;;5091614;28;19912;-61
2022/01/17 08:59:28;;;;;;;;;;;7.40;99.90;;;;;;5091633;28;19908;-61
2022/01/17 09:01:54;;;;;;;;;;;7.40;99.90;;;;;;5092030;28;19954;-60
2022/01/17 09:04:19;;;;;;;;;;;7.50;99.90;;;;;;5090962;28;19958;-61
2022/01/17 09:06:46;;;;;;;;;;;7.50;99.90;;;;;;5089132;28;19916;-61
2022/01/17 09:09:11;;;;;;;;;;;7.50;99.90;;;;;;5091955;28;19970;-62
2022/01/17 09:11:36;;;;;;;;;;;7.50;99.90;;;;;;5091026;28;20375;-57
2022/01/17 09:14:02;;;;;;;;;;;7.50;99.90;;;;;;5091100;28;20035;-57
2022/01/17 09:16:28;;;;;;;;;;;7.50;99.90;;;;;;5091463;28;19908;-58
2022/01/17 09:18:53;;;;;;;;;;;7.60;99.90;;;;;;5091506;28;19999;-58
2022/01/17 09:21:19;;;;;;;;;;;7.60;99.90;;;;;;5091443;28;19931;-59
2022/01/17 09:23:44;;;;;;;;;;;7.70;99.90;;;;;;5091517;28;19934;-58
2022/01/17 09:26:10;;;;;;;;;;;7.70;99.90;;;;;;5090921;28;19908;-58
2022/01/17 09:28:35;;;;;;;;;;;7.70;99.90;;;;;;5091032;28;19908;-58
2022/01/17 09:31:01;;;;;;;;;;;7.70;99.90;;;;;;5091355;28;20274;-58
2022/01/17 09:33:27;;;;;;;;;;;7.80;99.90;;;;;;5089821;28;19955;-59
2022/01/17 09:35:52;;;;;;;;;;;7.80;99.90;;;;;;5091710;28;19966;-58
2022/01/17 09:38:18;;;;;;;;;;;7.90;99.90;;;;;;5090663;28;20015;-58
2022/01/17 09:40:43;;;;;;;;;;;7.90;99.90;;;;;;5090928;28;19912;-59
2022/01/17 09:43:09;;;;;;;;;;;8.00;99.90;;;;;;5089969;28;19912;-58
2022/01/17 09:45:34;;;;;;;;;;;8.00;99.90;;;;;;5090250;28;19912;-58
2022/01/17 09:48:02;;;;;;;;;;;8.00;99.90;;;;;;5091449;28;19990;-59
2022/01/17 09:50:45;;;;;;;;;;;8.20;99.90;;;;;;5092449;28;19916;-59
2022/01/17 09:53:13;;;;;;;;;;;8.30;99.90;;;;;;5075243;28;19920;-60
2022/01/17 09:55:39;;;;;;;;;;;8.40;99.90;;;;;;5076490;28;19912;-59
2022/01/17 09:58:06;;;;;;;;;;;8.60;99.90;;;;;;5076888;28;20030;-60
2022/01/17 10:00:35;;;;;;;;;;;8.70;99.90;;;;;;5075672;28;19935;-60
2022/01/17 10:03:03;;;;;;;;;;;8.70;99.90;;;;;;5095993;28;19977;-61
2022/01/17 10:05:28;;;;;;;;;;;8.70;99.90;;;;;;5095631;28;19924;-61
2022/01/17 10:07:56;;;;;;;;;;;8.80;99.90;;;;;;5096257;28;19918;-61
2022/01/17 10:10:35;;;;;;;;;;;8.80;99.90;;;;;;5090195;28;20019;-60
2022/01/17 10:13:30;;;;;;;;;;;8.90;99.90;;;;;;5097403;28;19923;-61
2022/01/17 10:15:56;;;;;;;;;;;9.00;99.90;;;;;;5088473;28;19912;-60
2022/01/17 10:18:30;;;;;;;;;;;9.10;99.90;;;;;;5110350;28;19941;-60
2022/01/17 10:21:06;;;;;;;;;;;9.10;99.90;;;;;;5101819;28;19947;-61
2022/01/17 10:37:22;;;;;;;;;;;9.60;99.90;;;;;;5087470;28;20262;-61
2022/01/17 10:39:53;;;;;;;;;;;9.60;99.90;;;;;;5099384;28;19919;-60
2022/01/17 10:42:22;;;;;;;;;;;9.80;99.90;;;;;;5098403;28;19912;-61
2022/01/17 10:44:48;;;;;;;;;;;9.80;99.90;;;;;;5096030;28;19964;-60
2022/01/17 10:47:22;;;;;;;;;;;9.80;99.90;;;;;;5095838;28;19908;-60
2022/01/17 10:49:49;;;;;;;;;;;9.90;99.90;;;;;;5095237;28;20356;-60
2022/01/17 10:52:34;;;;;;;;;;;9.90;99.90;;;;;;5077306;28;20257;-60
2022/01/17 10:55:06;;;;;;;;;;;9.90;99.90;;;;;;5075729;28;19908;-61
2022/01/17 10:57:41;;;;;;;;;;;9.90;99.90;;;;;;5074890;28;19927;-60
2022/01/17 11:00:08;;;;;;;;;;;10.00;99.90;;;;;;5075548;28;19994;-61
2022/01/17 11:02:34;;;;;;;;;;;10.00;99.90;;;;;;5093299;28;19912;-61
2022/01/17 11:05:02;;;;;;;;;;;10.10;99.90;;;;;;5093759;28;19920;-60
2022/01/17 11:07:28;;;;;;;;;;;10.10;99.90;;;;;;5075066;28;19920;-60
2022/01/17 11:09:57;;;;;;;;;;;10.10;99.90;;;;;;5074670;28;19913;-60
2022/01/17 11:12:27;;;;;;;;;;;10.10;99.90;;;;;;5092682;28;20003;-60
2022/01/17 11:14:55;;;;;;;;;;;10.00;99.90;;;;;;5095000;28;20045;-60
2022/01/17 11:17:22;;;;;;;;;;;10.10;99.90;;;;;;5094232;28;19915;-60
2022/01/17 11:20:05;;;;;;;;;;;10.10;99.90;;;;;;5087430;28;19913;-60
2022/01/17 11:22:32;;;;;;;;;;;10.10;99.90;;;;;;5074344;28;19955;-60
2022/01/17 11:24:58;;;;;;;;;;;10.10;99.90;;;;;;5076976;28;20328;-60
2022/01/17 11:27:23;;;;;;;;;;;10.10;99.90;;;;;;5094111;28;20038;-60
2022/01/17 11:29:49;;;;;;;;;;;10.10;99.90;;;;;;5088282;28;19916;-60
2022/01/17 11:32:15;;;;;;;;;;;10.00;99.90;;;;;;5074019;28;19920;-60
2022/01/17 11:34:41;;;;;;;;;;;10.00;99.90;;;;;;5074573;28;19912;-60
2022/01/17 11:37:07;;;;;;;;;;;10.10;99.90;;;;;;5074835;28;19962;-60
2022/01/17 11:39:32;;;;;;;;;;;10.20;99.90;;;;;;5077232;28;19912;-60
2022/01/17 11:41:58;;;;;;;;;;;10.20;99.90;;;;;;5094929;28;19920;-61
2022/01/17 11:44:33;;;;;;;;;;;10.30;99.90;;;;;;5094275;28;19909;-60
2022/01/17 11:46:59;;;;;;;;;;;10.30;99.90;;;;;;5074281;28;19965;-60
2022/01/17 11:49:26;;;;;;;;;;;10.30;99.90;;;;;;5076533;28;19920;-60
2022/01/17 11:51:51;;;;;;;;;;;10.30;99.90;;;;;;5093777;28;19924;-60
2022/01/17 11:54:24;;;;;;;;;;;10.30;99.90;;;;;;5094471;28;19915;-60
2022/01/17 11:56:51;;;;;;;;;;;10.20;99.90;;;;;;5094783;28;19999;-60
2022/01/17 11:59:35;;;;;;;;;;;10.30;99.90;;;;;;5092307;28;20413;-60
2022/01/17 12:02:13;;;;;;;;;;;10.30;99.90;;;;;;5100463;28;19919;-60
2022/01/17 12:04:38;;;;;;;;;;;10.20;99.90;;;;;;5114834;28;19981;-60
2022/01/17 12:07:04;;;;;;;;;;;10.30;99.90;;;;;;5098328;28;20438;-60
2022/01/17 12:09:29;;;;;;;;;;;10.20;99.90;;;;;;5094329;28;19981;-60
2022/01/17 12:12:07;;;;;;;;;;;10.30;99.90;;;;;;5094208;28;19924;-60
2022/01/17 12:14:34;;;;;;;;;;;10.30;99.90;;;;;;5092927;28;19912;-59
2022/01/17 12:17:27;;;;;;;;;;;10.20;99.90;;;;;;5093326;28;19955;-60
2022/01/17 12:20:05;;;;;;;;;;;10.20;99.90;;;;;;5089060;28;19962;-60
2022/01/17 12:22:30;;;;;;;;;;;10.30;99.90;;;;;;5094136;28;20302;-59
2022/01/17 12:24:56;;;;;;;;;;;10.30;99.90;;;;;;5114482;28;19908;-59
2022/01/17 12:27:24;;;;;;;;;;;10.30;99.90;;;;;;5113714;28;19919;-59
2022/01/17 12:30:10;;;;;;;;;;;10.30;99.90;;;;;;5114297;28;19907;-60
2022/01/17 12:32:39;;;;;;;;;;;10.30;99.90;;;;;;5110040;28;19959;-60
2022/01/17 12:35:05;;;;;;;;;;;10.30;99.90;;;;;;5077050;28;19913;-59
2022/01/17 12:37:32;;;;;;;;;;;10.30;99.90;;;;;;5112694;28;19908;-59
2022/01/17 12:40:13;;;;;;;;;;;10.30;99.90;;;;;;5107814;28;19954;-60
2022/01/17 12:42:48;;;;;;;;;;;10.30;99.90;;;;;;5093531;28;19908;-60
2022/01/17 12:45:17;;;;;;;;;;;10.30;99.90;;;;;;5093839;28;19912;-59
2022/01/17 12:47:44;;;;;;;;;;;10.30;99.90;;;;;;5093762;28;19912;-60
2022/01/17 12:50:10;;;;;;;;;;;10.30;99.90;;;;;;5093148;28;19976;-60
2022/01/17 12:52:35;;;;;;;;;;;10.30;99.90;;;;;;5103281;28;20450;-60
2022/01/17 12:55:03;;;;;;;;;;;10.30;99.90;;;;;;5114011;28;20488;-60
2022/01/17 12:57:28;;;;;;;;;;;10.30;99.90;;;;;;5113684;28;19936;-60
2022/01/17 12:59:54;;;;;;;;;;;10.30;99.90;;;;;;5113988;28;20002;-60
2022/01/17 13:02:19;;;;;;;;;;;10.20;99.90;;;;;;5113131;28;19996;-60
2022/01/17 13:04:45;;;;;;;;;;;10.20;99.90;;;;;;5096855;28;19924;-60
2022/01/17 13:07:10;;;;;;;;;;;10.20;99.90;;;;;;5091623;28;20430;-60
2022/01/17 13:09:39;;;;;;;;;;;10.20;99.90;;;;;;5090879;28;19915;-60
2022/01/17 13:12:05;;;;;;;;;;;10.20;99.90;;;;;;5091401;28;19916;-60
2022/01/17 13:14:32;;;;;;;;;;;10.20;99.90;;;;;;5089938;28;19971;-60
2022/01/17 13:16:57;;;;;;;;;;;10.20;99.90;;;;;;5091014;28;19908;-59
2022/01/17 13:19:23;;;;;;;;;;;10.20;99.90;;;;;;5091274;28;19930;-60
2022/01/17 13:21:50;;;;;;;;;;;10.20;99.90;;;;;;5091564;28;20002;-60
2022/01/17 13:26:58;;;;;;;;;;;10.20;99.90;;;;;;5093153;28;19908;-60
2022/01/17 13:29:25;;;;;;;;;;;10.10;99.90;;;;;;5092767;28;20413;-60
2022/01/17 13:31:51;;;;;;;;;;;10.10;99.90;;;;;;5092538;28;19916;-59
2022/01/17 13:34:19;;;;;;;;;;;10.10;99.90;;;;;;5081445;28;19924;-59
2022/01/17 13:36:45;;;;;;;;;;;10.30;99.90;;;;;;5072865;28;19908;-59
2022/01/17 13:39:12;;;;;;;;;;;10.30;99.90;;;;;;5072496;28;20003;-59
2022/01/17 13:41:42;;;;;;;;;;;10.30;99.90;;;;;;5072691;28;20417;-59
2022/01/17 13:44:09;;;;;;;;;;;10.20;99.90;;;;;;5080186;28;19919;-60
2022/01/17 13:46:38;;;;;;;;;;;10.10;99.90;;;;;;5092103;28;19953;-59
2022/01/17 13:49:05;;;;;;;;;;;10.10;99.90;;;;;;5092869;28;20355;-60
2022/01/17 13:51:30;;;;;;;;;;;10.00;99.90;;;;;;5092138;28;20010;-60
2022/01/17 13:53:56;;;;;;;;;;;10.00;99.90;;;;;;5091189;28;20012;-60
2022/01/17 13:56:22;;;;;;;;;;;9.90;99.90;;;;;;5088189;28;19912;-60
2022/01/17 13:58:50;;;;;;;;;;;9.90;99.90;;;;;;5112801;28;19907;-59
2022/01/17 14:01:16;;;;;;;;;;;9.90;99.90;;;;;;5098179;28;19915;-59
2022/01/17 14:03:45;;;;;;;;;;;9.90;99.90;;;;;;5092632;28;19912;-59
2022/01/17 14:06:14;;;;;;;;;;;9.80;99.90;;;;;;5091922;28;19943;-60
2022/01/17 14:08:44;;;;;;;;;;;9.90;99.90;;;;;;5092706;28;19931;-60
2022/01/17 14:11:12;;;;;;;;;;;9.80;99.90;;;;;;5092520;28;19916;-60
2022/01/17 14:13:45;;;;;;;;;;;9.80;99.90;;;;;;5092250;28;20361;-59
2022/01/17 14:16:11;;;;;;;;;;;9.80;99.90;;;;;;5091788;28;19931;-59
2022/01/17 14:18:40;;;;;;;;;;;9.90;99.90;;;;;;5081706;28;20058;-60
2022/01/17 14:21:06;;;;;;;;;;;9.90;99.90;;;;;;5076960;28;19919;-59
2022/01/17 14:23:35;;;;;;;;;;;9.90;99.90;;;;;;5105398;28;20258;-60
2022/01/17 14:26:01;;;;;;;;;;;9.70;99.90;;;;;;5112792;28;19908;-59
2022/01/17 14:28:27;;;;;;;;;;;9.70;99.90;;;;;;5084230;28;19912;-60
2022/01/17 14:30:53;;;;;;;;;;;9.60;99.90;;;;;;5072005;28;20398;-59
2022/01/17 14:33:20;;;;;;;;;;;9.70;99.90;;;;;;5071421;28;19915;-59
2022/01/17 14:36:05;;;;;;;;;;;9.70;99.90;;;;;;5071758;28;19908;-60
2022/01/17 14:38:31;;;;;;;;;;;9.70;99.90;;;;;;5086155;28;20359;-60
2022/01/17 14:40:56;;;;;;;;;;;9.70;99.90;;;;;;5095901;28;19955;-60
2022/01/17 14:43:30;;;;;;;;;;;9.70;99.90;;;;;;5095933;28;19919;-60
2022/01/17 14:46:06;;;;;;;;;;;9.70;99.90;;;;;;5096314;28;19908;-59
2022/01/17 14:48:35;;;;;;;;;;;9.60;99.90;;;;;;5083167;28;19912;-60
2022/01/17 14:51:13;;;;;;;;;;;9.60;99.90;;;;;;5075664;28;19916;-60
2022/01/17 14:53:39;;;;;;;;;;;9.60;99.90;;;;;;5076504;28;20521;-60
2022/01/17 15:01:40;;;;;;;;;;;9.50;99.90;;;;;;5075744;28;19958;-60
2022/01/17 15:04:06;;;;;;;;;;;9.50;99.90;;;;;;5076415;28;20060;-59
2022/01/17 15:06:31;;;;;;;;;;;9.50;99.90;;;;;;5075104;28;20011;-60